Atlantic City, NJ (08401)

8:27 PM EDT on September 23, 2014 (GMT -0400)
AC Bar and Grill | Change Station
CLOSE
Current Station
Personal Weather Station
Location: Atlantic City, NJ
Elevation: 10 ft
Nearby Weather Stations

Elev 10 ft 39.36 °N, 74.43 °W | Updated 4 seconds ago

Clear
Clear
63.6 °F
Feels Like 63.6 °F
N
1.7
Wind Variable Wind from NNE
Gusts 1.7 mph

Today
High -- | Low -- °F
--% Chance of Precip.
Yesterday
High -- | Low -- °F
Precip. -- in
6:46 AM 6:53 PM
Waning Crescent, 0% visible
Pressure 30.37 in
Visibility 10.0 miles
Clouds Clear
Dew Point 50 °F
Humidity 61%
Rainfall 0.00 in
Snow Depth Not available.
UV 0 out of 12
Pollen 2.80 out of 12
Air Quality Not available.
Flu Activity Not available.
METAR KACY 232354Z 00000KT 10SM CLR 13/11 A3037 RMK AO2 SLP282 T01330106 10194 20133 53014

More Conditions Fewer Conditions

Pressure 30.37 in
Visibility 10.0 miles
Clouds Clear
Dew Point 50 °F
Humidity 61%
Rainfall 0.00 in
Snow Depth Not available.
UV 0 out of 12
Pollen 2.80 out of 12
Air Quality Not available.
Flu Activity Not available.
METAR KACY 232354Z 00000KT 10SM CLR 13/11 A3037 RMK AO2 SLP282 T01330106 10194 20133 53014

More Conditions Fewer Conditions

10-Day Weather Forecast

Almanac

Astronomy

Sep. 23, 2014 Rise Set
Actual Time 6:46 AM EDT 6:53 PM EDT
Civil Twilight 6:19 AM EDT 7:19 PM EDT
Nautical Twilight 5:48 AM EDT 7:51 PM EDT
Astronomical Twilight 5:16 AM EDT 8:22 PM EDT
Moon 6:08 AM EDT (9/23) 6:30 PM EDT (9/23)
Length of Visible Light 13h 00m
Length of Day
12h 06m
Tomorrow will be 2m 33s shorter.
Waning Crescent, 0% of the Moon is Illuminated
Today
Waning Crescent
Sep 24
New
Oct 1
First Quarter
Oct 8
Full
Oct 15
Last Quarter

Today's Extremes

State Highs State Lows

Community

WunderPhotos

Upload Photos

1,755,828 photos uploaded!

WunderBlogs® & News

Nearby

Snow Depth

Station Depth Elevation
No new snow has been reported.

Earthquake Activity

City Distance Mag. Time & Date
No recent earthquake activity has been reported nearby.
Minimum magnitude displayed is 2.5.

Coastal Water Temperatures

Place Temperature
Atlantic City, NJ 70.0 °F

Nearby Weather Stations